sensor_id;sensor_type;location;lat;lon;timestamp;pressure;altitude;pressure_sealevel;temperature;humidity
53246;BME280;39569;51.090;-1.786;2023-11-19T00:02:26;100252.69;;;20.75;47.79
53246;BME280;39569;51.090;-1.786;2023-11-19T00:04:53;100259.00;;;20.09;48.84
53246;BME280;39569;51.090;-1.786;2023-11-19T00:07:20;100264.06;;;20.77;47.04
53246;BME280;39569;51.090;-1.786;2023-11-19T00:09:46;100262.31;;;20.11;48.52
53246;BME280;39569;51.090;-1.786;2023-11-19T00:12:13;100266.31;;;20.09;48.47
53246;BME280;39569;51.090;-1.786;2023-11-19T00:14:40;100261.38;;;20.39;48.10
53246;BME280;39569;51.090;-1.786;2023-11-19T00:17:07;100259.22;;;20.19;48.28
53246;BME280;39569;51.090;-1.786;2023-11-19T00:19:35;100266.41;;;19.64;49.78
53246;BME280;39569;51.090;-1.786;2023-11-19T00:22:02;100259.97;;;20.96;46.61
53246;BME280;39569;51.090;-1.786;2023-11-19T00:24:29;100261.81;;;20.31;48.35
53246;BME280;39569;51.090;-1.786;2023-11-19T00:26:57;100266.50;;;19.69;49.92
53246;BME280;39569;51.090;-1.786;2023-11-19T00:29:24;100263.78;;;19.86;49.64
53246;BME280;39569;51.090;-1.786;2023-11-19T00:31:50;100261.75;;;20.86;47.34
53246;BME280;39569;51.090;-1.786;2023-11-19T00:34:17;100272.50;;;20.37;47.91
53246;BME280;39569;51.090;-1.786;2023-11-19T00:36:48;100265.84;;;20.67;47.95
53246;BME280;39569;51.090;-1.786;2023-11-19T00:39:15;100260.53;;;20.98;46.56
53246;BME280;39569;51.090;-1.786;2023-11-19T00:41:43;100253.69;;;21.66;45.44
53246;BME280;39569;51.090;-1.786;2023-11-19T00:44:11;100251.06;;;20.79;46.79
53246;BME280;39569;51.090;-1.786;2023-11-19T00:46:38;100259.44;;;21.16;46.17
53246;BME280;39569;51.090;-1.786;2023-11-19T00:49:05;100245.31;;;20.32;48.58
53246;BME280;39569;51.090;-1.786;2023-11-19T00:51:32;100247.34;;;20.85;47.27
53246;BME280;39569;51.090;-1.786;2023-11-19T00:54:00;100243.06;;;20.89;47.51
53246;BME280;39569;51.090;-1.786;2023-11-19T00:56:27;100240.00;;;21.29;46.24
53246;BME280;39569;51.090;-1.786;2023-11-19T00:58:54;100234.72;;;20.74;47.84
53246;BME280;39569;51.090;-1.786;2023-11-19T01:01:21;100230.00;;;21.08;46.28
53246;BME280;39569;51.090;-1.786;2023-11-19T01:03:48;100227.72;;;21.00;47.26
53246;BME280;39569;51.090;-1.786;2023-11-19T01:06:15;100233.22;;;20.62;47.33
53246;BME280;39569;51.090;-1.786;2023-11-19T01:08:52;100229.38;;;19.53;49.89
53246;BME280;39569;51.090;-1.786;2023-11-19T01:11:22;100214.53;;;20.43;48.54
53246;BME280;39569;51.090;-1.786;2023-11-19T01:13:49;100216.53;;;19.48;50.16
53246;BME280;39569;51.090;-1.786;2023-11-19T01:16:16;100221.56;;;20.23;48.21
53246;BME280;39569;51.090;-1.786;2023-11-19T01:18:43;100210.78;;;20.28;48.12
53246;BME280;39569;51.090;-1.786;2023-11-19T01:21:09;100209.50;;;19.97;48.96
53246;BME280;39569;51.090;-1.786;2023-11-19T01:23:36;100222.06;;;19.70;49.71
53246;BME280;39569;51.090;-1.786;2023-11-19T01:26:04;100230.44;;;19.69;49.24
53246;BME280;39569;51.090;-1.786;2023-11-19T01:28:32;100215.38;;;20.66;47.57
53246;BME280;39569;51.090;-1.786;2023-11-19T01:31:00;100230.41;;;19.35;49.63
53246;BME280;39569;51.090;-1.786;2023-11-19T01:33:26;100218.53;;;19.70;49.32
53246;BME280;39569;51.090;-1.786;2023-11-19T01:35:53;100233.00;;;19.58;49.43
53246;BME280;39569;51.090;-1.786;2023-11-19T01:38:21;100239.41;;;19.86;48.20
53246;BME280;39569;51.090;-1.786;2023-11-19T01:40:48;100229.94;;;18.99;51.45
53246;BME280;39569;51.090;-1.786;2023-11-19T01:43:34;100219.75;;;20.50;47.57
53246;BME280;39569;51.090;-1.786;2023-11-19T01:46:01;100224.53;;;19.88;48.86
53246;BME280;39569;51.090;-1.786;2023-11-19T01:48:29;100219.81;;;20.33;47.77
53246;BME280;39569;51.090;-1.786;2023-11-19T01:50:56;100212.00;;;20.80;46.89
53246;BME280;39569;51.090;-1.786;2023-11-19T01:53:24;100215.66;;;19.76;49.65
53246;BME280;39569;51.090;-1.786;2023-11-19T01:55:51;100220.91;;;18.93;50.80
53246;BME280;39569;51.090;-1.786;2023-11-19T01:58:18;100225.06;;;20.07;48.38
53246;BME280;39569;51.090;-1.786;2023-11-19T02:00:47;100223.28;;;19.79;49.07
53246;BME280;39569;51.090;-1.786;2023-11-19T02:03:14;100213.75;;;20.10;48.40
53246;BME280;39569;51.090;-1.786;2023-11-19T02:05:41;100222.94;;;20.25;47.70
53246;BME280;39569;51.090;-1.786;2023-11-19T02:08:08;100211.38;;;20.51;46.93
53246;BME280;39569;51.090;-1.786;2023-11-19T02:10:35;100210.28;;;19.48;49.26
53246;BME280;39569;51.090;-1.786;2023-11-19T02:13:02;100204.31;;;19.79;48.67
53246;BME280;39569;51.090;-1.786;2023-11-19T02:15:31;100207.59;;;19.65;49.49
53246;BME280;39569;51.090;-1.786;2023-11-19T02:18:17;100196.47;;;20.32;48.52
53246;BME280;39569;51.090;-1.786;2023-11-19T02:20:43;100184.28;;;19.80;48.98
53246;BME280;39569;51.090;-1.786;2023-11-19T02:23:11;100174.84;;;19.49;50.39
53246;BME280;39569;51.090;-1.786;2023-11-19T02:25:38;100171.97;;;20.27;48.37
53246;BME280;39569;51.090;-1.786;2023-11-19T02:28:08;100158.03;;;20.02;49.37
53246;BME280;39569;51.090;-1.786;2023-11-19T02:30:37;100167.38;;;19.73;49.61
53246;BME280;39569;51.090;-1.786;2023-11-19T02:33:04;100172.00;;;20.49;47.74
53246;BME280;39569;51.090;-1.786;2023-11-19T02:35:32;100166.50;;;20.44;48.06
53246;BME280;39569;51.090;-1.786;2023-11-19T02:37:59;100180.13;;;20.71;46.92
53246;BME280;39569;51.090;-1.786;2023-11-19T02:40:26;100177.06;;;19.08;51.37
53246;BME280;39569;51.090;-1.786;2023-11-19T02:42:53;100171.91;;;20.22;48.92
53246;BME280;39569;51.090;-1.786;2023-11-19T02:45:22;100171.31;;;19.66;50.15
53246;BME280;39569;51.090;-1.786;2023-11-19T02:47:50;100162.81;;;19.12;51.98
53246;BME280;39569;51.090;-1.786;2023-11-19T02:50:17;100161.69;;;19.91;49.60
53246;BME280;39569;51.090;-1.786;2023-11-19T02:52:51;100173.13;;;19.43;50.60
53246;BME280;39569;51.090;-1.786;2023-11-19T02:55:19;100160.06;;;19.40;50.56
53246;BME280;39569;51.090;-1.786;2023-11-19T02:57:46;100158.16;;;19.74;49.76
53246;BME280;39569;51.090;-1.786;2023-11-19T03:00:15;100158.41;;;19.73;50.06
53246;BME280;39569;51.090;-1.786;2023-11-19T03:02:44;100163.84;;;19.11;51.54
53246;BME280;39569;51.090;-1.786;2023-11-19T03:05:12;100160.69;;;19.97;49.16
53246;BME280;39569;51.090;-1.786;2023-11-19T03:07:41;100165.19;;;20.25;48.20
53246;BME280;39569;51.090;-1.786;2023-11-19T03:10:09;100154.84;;;20.43;47.63
53246;BME280;39569;51.090;-1.786;2023-11-19T03:12:39;100164.25;;;19.03;50.89
53246;BME280;39569;51.090;-1.786;2023-11-19T03:15:07;100154.56;;;19.35;50.88
53246;BME280;39569;51.090;-1.786;2023-11-19T03:17:35;100159.81;;;20.30;48.47
53246;BME280;39569;51.090;-1.786;2023-11-19T03:20:05;100143.06;;;20.81;47.03
53246;BME280;39569;51.090;-1.786;2023-11-19T03:22:34;100153.84;;;19.56;49.39
53246;BME280;39569;51.090;-1.786;2023-11-19T03:25:01;100148.50;;;20.00;49.06
53246;BME280;39569;51.090;-1.786;2023-11-19T03:27:28;100151.28;;;20.65;46.97
53246;BME280;39569;51.090;-1.786;2023-11-19T03:29:55;100136.41;;;20.45;47.13
53246;BME280;39569;51.090;-1.786;2023-11-19T03:32:21;100141.75;;;20.19;48.16
53246;BME280;39569;51.090;-1.786;2023-11-19T03:34:48;100139.69;;;20.26;47.62
53246;BME280;39569;51.090;-1.786;2023-11-19T03:37:16;100138.63;;;19.39;50.59
53246;BME280;39569;51.090;-1.786;2023-11-19T03:39:43;100147.78;;;20.04;48.58
53246;BME280;39569;51.090;-1.786;2023-11-19T03:42:10;100136.72;;;20.11;48.39
53246;BME280;39569;51.090;-1.786;2023-11-19T03:44:38;100130.25;;;19.40;50.06
53246;BME280;39569;51.090;-1.786;2023-11-19T03:47:05;100129.16;;;20.13;47.98
53246;BME280;39569;51.090;-1.786;2023-11-19T03:49:32;100119.94;;;20.30;47.41
53246;BME280;39569;51.090;-1.786;2023-11-19T03:51:59;100122.34;;;19.22;49.60
53246;BME280;39569;51.090;-1.786;2023-11-19T03:54:27;100147.22;;;19.86;48.31
53246;BME280;39569;51.090;-1.786;2023-11-19T03:56:54;100139.38;;;20.44;46.79
53246;BME280;39569;51.090;-1.786;2023-11-19T03:59:21;100138.31;;;20.23;46.84
53246;BME280;39569;51.090;-1.786;2023-11-19T04:01:48;100131.66;;;19.98;47.88
53246;BME280;39569;51.090;-1.786;2023-11-19T04:04:14;100131.38;;;19.11;49.33
53246;BME280;39569;51.090;-1.786;2023-11-19T04:06:41;100118.28;;;19.36;48.24
53246;BME280;39569;51.090;-1.786;2023-11-19T04:09:08;100115.50;;;20.03;47.75
53246;BME280;39569;51.090;-1.786;2023-11-19T04:11:37;100121.38;;;19.78;48.65
53246;BME280;39569;51.090;-1.786;2023-11-19T04:14:05;100125.13;;;19.94;46.81
53246;BME280;39569;51.090;-1.786;2023-11-19T04:16:32;100119.84;;;19.49;48.57
53246;BME280;39569;51.090;-1.786;2023-11-19T04:18:58;100116.09;;;20.48;46.37
53246;BME280;39569;51.090;-1.786;2023-11-19T04:21:25;100117.34;;;20.40;46.51
53246;BME280;39569;51.090;-1.786;2023-11-19T04:23:52;100125.88;;;20.27;46.85
53246;BME280;39569;51.090;-1.786;2023-11-19T04:26:19;100111.19;;;20.07;47.19
53246;BME280;39569;51.090;-1.786;2023-11-19T04:28:47;100124.47;;;20.46;46.75
53246;BME280;39569;51.090;-1.786;2023-11-19T04:31:14;100128.78;;;20.64;46.66
53246;BME280;39569;51.090;-1.786;2023-11-19T04:33:41;100138.44;;;19.95;47.50
53246;BME280;39569;51.090;-1.786;2023-11-19T04:36:09;100131.56;;;19.71;48.79
53246;BME280;39569;51.090;-1.786;2023-11-19T04:38:37;100123.13;;;20.71;46.75
53246;BME280;39569;51.090;-1.786;2023-11-19T04:41:04;100122.28;;;20.22;47.77
53246;BME280;39569;51.090;-1.786;2023-11-19T04:43:31;100143.06;;;19.45;50.04
53246;BME280;39569;51.090;-1.786;2023-11-19T04:46:00;100130.66;;;20.90;46.85
53246;BME280;39569;51.090;-1.786;2023-11-19T04:48:26;100133.25;;;20.75;46.35
53246;BME280;39569;51.090;-1.786;2023-11-19T04:50:53;100124.41;;;19.82;48.76
53246;BME280;39569;51.090;-1.786;2023-11-19T04:53:20;100134.38;;;19.43;49.32
53246;BME280;39569;51.090;-1.786;2023-11-19T04:55:47;100120.28;;;19.29;49.85
53246;BME280;39569;51.090;-1.786;2023-11-19T04:58:14;100119.25;;;19.64;48.75
53246;BME280;39569;51.090;-1.786;2023-11-19T05:00:40;100115.44;;;20.89;46.26
53246;BME280;39569;51.090;-1.786;2023-11-19T05:03:08;100119.69;;;19.39;48.92
53246;BME280;39569;51.090;-1.786;2023-11-19T05:05:35;100114.06;;;19.79;47.62
53246;BME280;39569;51.090;-1.786;2023-11-19T05:08:02;100111.91;;;19.31;49.29
53246;BME280;39569;51.090;-1.786;2023-11-19T05:10:29;100121.91;;;19.58;48.18
53246;BME280;39569;51.090;-1.786;2023-11-19T05:12:55;100113.84;;;19.64;47.53
53246;BME280;39569;51.090;-1.786;2023-11-19T05:15:23;100118.44;;;19.46;47.97
53246;BME280;39569;51.090;-1.786;2023-11-19T05:17:49;100105.41;;;19.43;47.86
53246;BME280;39569;51.090;-1.786;2023-11-19T05:20:17;100107.75;;;20.33;45.88
53246;BME280;39569;51.090;-1.786;2023-11-19T05:22:44;100100.59;;;19.84;46.30
53246;BME280;39569;51.090;-1.786;2023-11-19T05:25:11;100115.56;;;19.70;46.83
53246;BME280;39569;51.090;-1.786;2023-11-19T05:27:38;100113.63;;;19.87;46.11
53246;BME280;39569;51.090;-1.786;2023-11-19T05:30:06;100109.91;;;19.54;46.64
53246;BME280;39569;51.090;-1.786;2023-11-19T05:32:33;100102.94;;;19.97;45.98
53246;BME280;39569;51.090;-1.786;2023-11-19T05:35:00;100111.19;;;19.02;47.75
53246;BME280;39569;51.090;-1.786;2023-11-19T05:37:28;100099.63;;;20.81;44.26
53246;BME280;39569;51.090;-1.786;2023-11-19T05:39:55;100094.91;;;20.45;44.44
53246;BME280;39569;51.090;-1.786;2023-11-19T05:42:22;100089.91;;;20.15;44.71
53246;BME280;39569;51.090;-1.786;2023-11-19T05:44:49;100108.13;;;19.43;45.24
53246;BME280;39569;51.090;-1.786;2023-11-19T05:47:17;100109.47;;;18.68;47.10
53246;BME280;39569;51.090;-1.786;2023-11-19T05:49:44;100108.09;;;19.27;46.22
53246;BME280;39569;51.090;-1.786;2023-11-19T05:52:10;100112.41;;;18.95;46.83
53246;BME280;39569;51.090;-1.786;2023-11-19T05:54:39;100109.78;;;20.21;44.68
53246;BME280;39569;51.090;-1.786;2023-11-19T05:57:06;100109.59;;;20.49;43.57
53246;BME280;39569;51.090;-1.786;2023-11-19T05:59:34;100113.91;;;20.07;44.43
53246;BME280;39569;51.090;-1.786;2023-11-19T06:02:01;100111.94;;;19.81;44.49
53246;BME280;39569;51.090;-1.786;2023-11-19T06:04:29;100101.69;;;20.69;42.81
53246;BME280;39569;51.090;-1.786;2023-11-19T06:06:55;100106.88;;;21.29;41.47
53246;BME280;39569;51.090;-1.786;2023-11-19T06:09:22;100112.78;;;19.31;45.35
53246;BME280;39569;51.090;-1.786;2023-11-19T06:11:51;100111.91;;;20.62;43.41
53246;BME280;39569;51.090;-1.786;2023-11-19T06:14:18;100113.19;;;19.73;44.46
53246;BME280;39569;51.090;-1.786;2023-11-19T06:16:44;100103.75;;;20.89;42.30
53246;BME280;39569;51.090;-1.786;2023-11-19T06:19:11;100111.75;;;20.47;42.48
53246;BME280;39569;51.090;-1.786;2023-11-19T06:21:38;100111.94;;;20.94;41.89
53246;BME280;39569;51.090;-1.786;2023-11-19T06:24:05;100119.00;;;20.90;42.28
53246;BME280;39569;51.090;-1.786;2023-11-19T06:26:32;100125.41;;;20.79;41.88
53246;BME280;39569;51.090;-1.786;2023-11-19T06:29:00;100142.13;;;20.27;43.41
53246;BME280;39569;51.090;-1.786;2023-11-19T06:31:27;100137.50;;;20.23;43.38
53246;BME280;39569;51.090;-1.786;2023-11-19T06:33:54;100130.97;;;20.24;43.05
53246;BME280;39569;51.090;-1.786;2023-11-19T06:36:20;100135.59;;;19.52;45.54
53246;BME280;39569;51.090;-1.786;2023-11-19T06:38:47;100119.69;;;20.32;43.77
53246;BME280;39569;51.090;-1.786;2023-11-19T06:41:14;100121.47;;;20.43;43.87
53246;BME280;39569;51.090;-1.786;2023-11-19T06:43:41;100129.09;;;20.46;43.38
53246;BME280;39569;51.090;-1.786;2023-11-19T06:46:15;100130.13;;;19.85;44.79
53246;BME280;39569;51.090;-1.786;2023-11-19T06:48:42;100138.69;;;19.60;45.83
53246;BME280;39569;51.090;-1.786;2023-11-19T06:51:10;100118.94;;;19.98;44.84
53246;BME280;39569;51.090;-1.786;2023-11-19T06:53:37;100121.00;;;18.92;46.86
53246;BME280;39569;51.090;-1.786;2023-11-19T06:56:06;100107.09;;;19.66;45.54
53246;BME280;39569;51.090;-1.786;2023-11-19T06:58:43;100125.56;;;19.19;45.95
53246;BME280;39569;51.090;-1.786;2023-11-19T07:01:10;100128.88;;;20.31;44.26
53246;BME280;39569;51.090;-1.786;2023-11-19T07:03:38;100130.22;;;19.90;44.60
53246;BME280;39569;51.090;-1.786;2023-11-19T07:06:05;100127.03;;;20.15;44.10
53246;BME280;39569;51.090;-1.786;2023-11-19T07:08:32;100145.28;;;19.65;45.13
53246;BME280;39569;51.090;-1.786;2023-11-19T07:10:59;100137.19;;;19.20;46.53
53246;BME280;39569;51.090;-1.786;2023-11-19T07:13:26;100130.16;;;20.45;44.29
53246;BME280;39569;51.090;-1.786;2023-11-19T07:15:53;100141.50;;;20.64;43.29
53246;BME280;39569;51.090;-1.786;2023-11-19T07:18:20;100147.19;;;20.19;44.28
53246;BME280;39569;51.090;-1.786;2023-11-19T07:20:48;100148.50;;;21.03;43.12
53246;BME280;39569;51.090;-1.786;2023-11-19T07:23:15;100146.88;;;20.37;44.52
53246;BME280;39569;51.090;-1.786;2023-11-19T07:25:42;100150.72;;;20.19;44.91
53246;BME280;39569;51.090;-1.786;2023-11-19T07:28:10;100151.34;;;20.48;44.29
53246;BME280;39569;51.090;-1.786;2023-11-19T07:30:37;100154.13;;;20.75;44.18
53246;BME280;39569;51.090;-1.786;2023-11-19T07:33:04;100145.03;;;21.12;42.52
53246;BME280;39569;51.090;-1.786;2023-11-19T07:35:31;100138.72;;;20.80;43.70
53246;BME280;39569;51.090;-1.786;2023-11-19T07:37:59;100159.91;;;20.18;44.92
53246;BME280;39569;51.090;-1.786;2023-11-19T07:40:26;100172.25;;;19.26;46.63
53246;BME280;39569;51.090;-1.786;2023-11-19T07:42:53;100168.41;;;19.89;46.01
53246;BME280;39569;51.090;-1.786;2023-11-19T07:45:20;100165.97;;;19.54;46.75
53246;BME280;39569;51.090;-1.786;2023-11-19T07:47:47;100161.38;;;18.93;47.89
53246;BME280;39569;51.090;-1.786;2023-11-19T07:50:14;100158.44;;;20.11;46.23
53246;BME280;39569;51.090;-1.786;2023-11-19T07:52:42;100149.06;;;19.47;47.00
53246;BME280;39569;51.090;-1.786;2023-11-19T07:55:10;100148.13;;;19.91;47.04
53246;BME280;39569;51.090;-1.786;2023-11-19T07:57:37;100140.94;;;20.88;44.04
53246;BME280;39569;51.090;-1.786;2023-11-19T08:00:05;100141.03;;;21.20;43.43
53246;BME280;39569;51.090;-1.786;2023-11-19T08:02:32;100144.28;;;19.87;45.96
53246;BME280;39569;51.090;-1.786;2023-11-19T08:04:58;100150.75;;;20.89;44.65
53246;BME280;39569;51.090;-1.786;2023-11-19T08:07:25;100148.22;;;20.56;45.18
53246;BME280;39569;51.090;-1.786;2023-11-19T08:09:52;100135.50;;;22.20;42.04
53246;BME280;39569;51.090;-1.786;2023-11-19T08:12:20;100141.09;;;21.93;42.61
53246;BME280;39569;51.090;-1.786;2023-11-19T08:14:47;100147.69;;;22.07;41.88
53246;BME280;39569;51.090;-1.786;2023-11-19T08:17:14;100146.41;;;21.41;44.01
53246;BME280;39569;51.090;-1.786;2023-11-19T08:19:41;100160.53;;;22.12;42.42
53246;BME280;39569;51.090;-1.786;2023-11-19T08:22:08;100165.50;;;20.50;44.38
53246;BME280;39569;51.090;-1.786;2023-11-19T08:24:35;100175.69;;;21.08;44.02
53246;BME280;39569;51.090;-1.786;2023-11-19T08:27:02;100173.63;;;20.72;44.40
53246;BME280;39569;51.090;-1.786;2023-11-19T08:29:30;100181.03;;;21.56;43.75
53246;BME280;39569;51.090;-1.786;2023-11-19T08:31:57;100176.97;;;21.00;43.38
53246;BME280;39569;51.090;-1.786;2023-11-19T08:34:24;100175.16;;;21.11;44.00
53246;BME280;39569;51.090;-1.786;2023-11-19T08:36:51;100179.13;;;21.25;43.26
53246;BME280;39569;51.090;-1.786;2023-11-19T08:39:18;100173.59;;;20.93;43.14
53246;BME280;39569;51.090;-1.786;2023-11-19T08:41:46;100167.59;;;21.13;43.31
53246;BME280;39569;51.090;-1.786;2023-11-19T08:44:13;100176.91;;;21.53;42.58
53246;BME280;39569;51.090;-1.786;2023-11-19T08:46:47;100175.75;;;21.44;43.25
53246;BME280;39569;51.090;-1.786;2023-11-19T08:49:14;100170.97;;;20.77;43.44
53246;BME280;39569;51.090;-1.786;2023-11-19T08:51:41;100153.31;;;21.27;42.43
53246;BME280;39569;51.090;-1.786;2023-11-19T08:54:08;100155.88;;;21.12;42.77
53246;BME280;39569;51.090;-1.786;2023-11-19T08:56:34;100152.31;;;20.59;43.61
53246;BME280;39569;51.090;-1.786;2023-11-19T08:59:01;100161.03;;;21.72;41.47
53246;BME280;39569;51.090;-1.786;2023-11-19T09:01:29;100154.88;;;21.82;41.72
53246;BME280;39569;51.090;-1.786;2023-11-19T09:03:57;100158.16;;;21.84;41.04
53246;BME280;39569;51.090;-1.786;2023-11-19T09:06:24;100155.09;;;21.12;41.76
53246;BME280;39569;51.090;-1.786;2023-11-19T09:08:51;100151.22;;;21.34;42.08
53246;BME280;39569;51.090;-1.786;2023-11-19T09:11:18;100152.00;;;22.03;40.82
53246;BME280;39569;51.090;-1.786;2023-11-19T09:13:44;100157.16;;;22.00;40.42
53246;BME280;39569;51.090;-1.786;2023-11-19T09:16:12;100147.38;;;21.99;40.38
53246;BME280;39569;51.090;-1.786;2023-11-19T09:18:38;100149.06;;;20.83;42.97
53246;BME280;39569;51.090;-1.786;2023-11-19T09:21:07;100161.19;;;21.92;41.22
53246;BME280;39569;51.090;-1.786;2023-11-19T09:23:34;100150.19;;;21.40;41.73
53246;BME280;39569;51.090;-1.786;2023-11-19T09:26:04;100163.59;;;21.84;41.36
53246;BME280;39569;51.090;-1.786;2023-11-19T09:28:32;100160.66;;;21.59;41.71
53246;BME280;39569;51.090;-1.786;2023-11-19T09:30:58;100158.72;;;21.86;40.56
53246;BME280;39569;51.090;-1.786;2023-11-19T09:33:25;100172.59;;;21.58;41.16
53246;BME280;39569;51.090;-1.786;2023-11-19T09:35:52;100140.94;;;22.15;39.85
53246;BME280;39569;51.090;-1.786;2023-11-19T09:38:20;100141.19;;;22.65;39.79
53246;BME280;39569;51.090;-1.786;2023-11-19T09:40:47;100150.44;;;22.12;40.82
53246;BME280;39569;51.090;-1.786;2023-11-19T09:43:15;100136.16;;;22.37;40.57
53246;BME280;39569;51.090;-1.786;2023-11-19T09:45:48;100136.81;;;22.59;40.25
53246;BME280;39569;51.090;-1.786;2023-11-19T09:48:17;100124.63;;;22.82;40.93
53246;BME280;39569;51.090;-1.786;2023-11-19T09:50:45;100136.91;;;22.27;42.35
53246;BME280;39569;51.090;-1.786;2023-11-19T09:53:13;100130.03;;;21.05;45.21
53246;BME280;39569;51.090;-1.786;2023-11-19T09:55:42;100139.88;;;21.42;43.97
53246;BME280;39569;51.090;-1.786;2023-11-19T09:58:11;100144.78;;;22.24;42.56
53246;BME280;39569;51.090;-1.786;2023-11-19T10:00:38;100155.75;;;21.92;43.10
53246;BME280;39569;51.090;-1.786;2023-11-19T10:03:07;100138.28;;;22.25;42.16
53246;BME280;39569;51.090;-1.786;2023-11-19T10:05:37;100141.59;;;21.53;42.92
53246;BME280;39569;51.090;-1.786;2023-11-19T10:08:05;100153.00;;;20.71;44.97
53246;BME280;39569;51.090;-1.786;2023-11-19T10:10:33;100145.81;;;20.60;44.75
53246;BME280;39569;51.090;-1.786;2023-11-19T10:13:01;100143.25;;;21.91;42.61
53246;BME280;39569;51.090;-1.786;2023-11-19T10:15:29;100156.94;;;21.06;44.10
53246;BME280;39569;51.090;-1.786;2023-11-19T10:17:59;100149.06;;;21.05;44.23
53246;BME280;39569;51.090;-1.786;2023-11-19T10:20:26;100156.91;;;21.33;44.25
53246;BME280;39569;51.090;-1.786;2023-11-19T10:22:53;100156.38;;;21.68;43.66
53246;BME280;39569;51.090;-1.786;2023-11-19T10:25:25;100155.53;;;21.62;43.28
53246;BME280;39569;51.090;-1.786;2023-11-19T10:27:52;100143.63;;;21.36;44.04
53246;BME280;39569;51.090;-1.786;2023-11-19T10:30:22;100150.16;;;21.72;43.13
53246;BME280;39569;51.090;-1.786;2023-11-19T10:33:06;100159.03;;;21.58;43.23
53246;BME280;39569;51.090;-1.786;2023-11-19T10:35:34;100158.31;;;22.09;43.19
53246;BME280;39569;51.090;-1.786;2023-11-19T10:38:01;100158.94;;;22.21;42.31
53246;BME280;39569;51.090;-1.786;2023-11-19T10:40:38;100160.41;;;21.92;42.81
53246;BME280;39569;51.090;-1.786;2023-11-19T10:43:06;100146.72;;;21.50;43.33
53246;BME280;39569;51.090;-1.786;2023-11-19T10:45:35;100157.53;;;21.40;44.05
53246;BME280;39569;51.090;-1.786;2023-11-19T10:48:03;100141.84;;;22.30;42.76
53246;BME280;39569;51.090;-1.786;2023-11-19T10:50:32;100151.63;;;22.93;41.36
53246;BME280;39569;51.090;-1.786;2023-11-19T10:52:59;100161.66;;;22.26;42.65
53246;BME280;39569;51.090;-1.786;2023-11-19T10:55:28;100151.84;;;22.20;42.86
53246;BME280;39569;51.090;-1.786;2023-11-19T10:57:59;100143.91;;;22.60;42.55
53246;BME280;39569;51.090;-1.786;2023-11-19T11:00:26;100149.34;;;22.60;42.03
53246;BME280;39569;51.090;-1.786;2023-11-19T11:03:00;100156.28;;;21.26;45.10
53246;BME280;39569;51.090;-1.786;2023-11-19T11:05:27;100148.06;;;20.94;45.01
53246;BME280;39569;51.090;-1.786;2023-11-19T11:07:55;100166.84;;;21.81;44.50
53246;BME280;39569;51.090;-1.786;2023-11-19T11:10:25;100147.66;;;21.02;46.31
53246;BME280;39569;51.090;-1.786;2023-11-19T11:12:52;100156.53;;;21.51;44.85
53246;BME280;39569;51.090;-1.786;2023-11-19T11:15:26;100150.25;;;22.86;42.04
53246;BME280;39569;51.090;-1.786;2023-11-19T11:17:59;100153.78;;;22.86;41.34
53246;BME280;39569;51.090;-1.786;2023-11-19T11:20:27;100145.91;;;22.28;42.78
53246;BME280;39569;51.090;-1.786;2023-11-19T11:23:06;100139.25;;;22.04;43.55
53246;BME280;39569;51.090;-1.786;2023-11-19T11:25:42;100125.22;;;23.84;40.32
53246;BME280;39569;51.090;-1.786;2023-11-19T11:28:23;100127.66;;;23.05;41.72
53246;BME280;39569;51.090;-1.786;2023-11-19T11:31:07;100122.22;;;23.25;41.47
53246;BME280;39569;51.090;-1.786;2023-11-19T11:33:55;100127.19;;;22.41;43.14
53246;BME280;39569;51.090;-1.786;2023-11-19T11:36:26;100125.41;;;22.62;42.08
53246;BME280;39569;51.090;-1.786;2023-11-19T11:38:53;100125.09;;;22.02;43.59
53246;BME280;39569;51.090;-1.786;2023-11-19T11:41:25;100129.97;;;22.00;43.99
53246;BME280;39569;51.090;-1.786;2023-11-19T11:43:52;100125.66;;;22.04;43.56
53246;BME280;39569;51.090;-1.786;2023-11-19T11:46:54;100115.69;;;23.77;41.26
53246;BME280;39569;51.090;-1.786;2023-11-19T11:49:27;100113.31;;;22.43;42.90
53246;BME280;39569;51.090;-1.786;2023-11-19T11:51:59;100123.00;;;22.14;44.09
53246;BME280;39569;51.090;-1.786;2023-11-19T11:54:26;100111.84;;;22.20;43.60
53246;BME280;39569;51.090;-1.786;2023-11-19T11:57:08;100099.84;;;22.73;42.36
53246;BME280;39569;51.090;-1.786;2023-11-19T11:59:37;100109.97;;;22.21;43.53
53246;BME280;39569;51.090;-1.786;2023-11-19T12:02:08;100114.28;;;22.17;44.53
53246;BME280;39569;51.090;-1.786;2023-11-19T12:04:36;100116.28;;;21.48;45.28
53246;BME280;39569;51.090;-1.786;2023-11-19T12:07:04;100116.00;;;21.81;44.84
53246;BME280;39569;51.090;-1.786;2023-11-19T12:09:31;100105.16;;;22.43;42.60
53246;BME280;39569;51.090;-1.786;2023-11-19T12:12:07;100119.59;;;21.23;45.91
53246;BME280;39569;51.090;-1.786;2023-11-19T12:15:04;100099.84;;;22.16;43.47
53246;BME280;39569;51.090;-1.786;2023-11-19T12:17:37;100095.97;;;21.97;44.65
53246;BME280;39569;51.090;-1.786;2023-11-19T12:20:07;100099.38;;;22.34;43.88
53246;BME280;39569;51.090;-1.786;2023-11-19T12:22:35;100112.56;;;22.58;43.42
53246;BME280;39569;51.090;-1.786;2023-11-19T12:25:05;100102.38;;;22.33;44.02
53246;BME280;39569;51.090;-1.786;2023-11-19T12:27:32;100112.78;;;21.89;44.55
53246;BME280;39569;51.090;-1.786;2023-11-19T12:29:59;100097.19;;;21.38;45.00
53246;BME280;39569;51.090;-1.786;2023-11-19T12:32:26;100091.84;;;21.90;44.80
53246;BME280;39569;51.090;-1.786;2023-11-19T12:34:52;100094.00;;;22.44;43.93
53246;BME280;39569;51.090;-1.786;2023-11-19T12:37:22;100082.69;;;23.18;42.20
53246;BME280;39569;51.090;-1.786;2023-11-19T12:39:48;100089.19;;;21.63;45.18
53246;BME280;39569;51.090;-1.786;2023-11-19T12:42:16;100084.06;;;23.05;42.20
53246;BME280;39569;51.090;-1.786;2023-11-19T12:44:54;100098.84;;;21.44;45.17
53246;BME280;39569;51.090;-1.786;2023-11-19T12:47:21;100097.28;;;21.53;45.51